METAR Data
IDs: Format: Raw Decoded Include TAF

Data at: 0214 UTC 25 Feb 2021

ETMN 250120Z AUTO 20007KT 9999 // ////// 11/06 Q1024 ///